TimeAKDT,TemperatureF,Dew PointF,Humidity,Sea Level PressureIn,VisibilityMPH,Wind Direction,Wind SpeedMPH,Gust SpeedMPH,PrecipitationIn,Events,Conditions,WindDirDegrees,DateUTC
12:53 AM,35.1,16.0,46,30.22,10.0,NNW,4.6,-,N/A,,Clear,330,2013-05-19 08:53:00
1:53 AM,35.1,16.0,46,30.25,10.0,North,5.8,-,N/A,,Clear,350,2013-05-19 09:53:00
2:53 AM,33.1,17.1,52,30.27,10.0,North,3.5,-,N/A,,Clear,10,2013-05-19 10:53:00
3:53 AM,33.1,15.1,48,30.30,10.0,Calm,Calm,-,N/A,,Clear,0,2013-05-19 11:53:00
4:53 AM,30.9,17.1,57,30.32,10.0,NE,4.6,-,N/A,,Clear,50,2013-05-19 12:53:00
5:53 AM,30.0,15.1,54,30.35,10.0,NNE,6.9,-,N/A,,Clear,30,2013-05-19 13:53:00
6:53 AM,34.0,16.0,48,30.38,10.0,NE,4.6,-,N/A,,Clear,40,2013-05-19 14:53:00
7:53 AM,37.9,16.0,41,30.40,10.0,ENE,6.9,-,N/A,,Clear,60,2013-05-19 15:53:00
8:53 AM,39.9,19.9,45,30.43,10.0,East,8.1,-,N/A,,Clear,80,2013-05-19 16:53:00
9:53 AM,39.9,21.0,47,30.45,10.0,East,9.2,-,N/A,,Clear,100,2013-05-19 17:53:00
10:53 AM,41.0,21.0,45,30.47,10.0,SE,4.6,-,N/A,,Clear,140,2013-05-19 18:53:00
11:53 AM,42.1,19.0,40,30.50,10.0,WSW,6.9,-,N/A,,Clear,250,2013-05-19 19:53:00
12:53 PM,43.0,17.1,35,30.51,10.0,SSW,5.8,-,N/A,,Clear,200,2013-05-19 20:53:00
1:53 PM,44.1,16.0,32,30.52,10.0,SSW,10.4,-,N/A,,Clear,210,2013-05-19 21:53:00
2:53 PM,46.0,18.0,33,30.53,10.0,Variable,6.9,-,N/A,,Clear,0,2013-05-19 22:53:00
3:53 PM,46.0,18.0,33,30.55,10.0,SW,9.2,-,N/A,,Clear,230,2013-05-19 23:53:00
4:53 PM,46.0,18.0,33,30.55,10.0,SW,6.9,-,N/A,,Clear,230,2013-05-20 00:53:00
5:53 PM,46.9,19.0,33,30.56,10.0,SW,10.4,-,N/A,,Clear,230,2013-05-20 01:53:00
6:53 PM,48.0,19.9,33,30.57,10.0,WSW,9.2,-,N/A,,Clear,250,2013-05-20 02:53:00
7:53 PM,46.0,23.0,40,30.58,10.0,WSW,10.4,17.3,N/A,,Clear,250,2013-05-20 03:53:00
8:53 PM,43.0,23.0,45,30.58,10.0,SW,9.2,-,N/A,,Clear,230,2013-05-20 04:53:00
9:53 PM,41.0,24.1,51,30.59,10.0,WSW,9.2,-,N/A,,Clear,240,2013-05-20 05:53:00
10:53 PM,39.9,23.0,51,30.62,10.0,WSW,4.6,-,N/A,,Clear,250,2013-05-20 06:53:00
11:53 PM,36.0,21.9,57,30.63,10.0,Calm,Calm,-,N/A,,Clear,0,2013-05-20 07:53:00